createdAt,value
2022-12-08T00:00:06.397Z,0.31
2022-12-08T00:02:38.803Z,0.34
2022-12-08T00:05:24.447Z,0.33
2022-12-08T00:08:10.237Z,0.38
2022-12-08T00:10:52.290Z,0.48
2022-12-08T00:13:19.004Z,0.50
2022-12-08T00:15:45.735Z,0.50
2022-12-08T00:18:12.573Z,0.43
2022-12-08T00:20:39.315Z,0.40
2022-12-08T00:23:06.099Z,0.33
2022-12-08T00:25:37.045Z,0.39
2022-12-08T00:28:03.890Z,0.37
2022-12-08T00:30:30.660Z,0.44
2022-12-08T00:32:57.463Z,0.44
2022-12-08T00:35:24.186Z,0.39
2022-12-08T00:37:57.519Z,0.37
2022-12-08T00:40:27.499Z,0.43
2022-12-08T00:42:54.170Z,0.44
2022-12-08T00:45:21.186Z,0.37
2022-12-08T00:47:47.907Z,0.44
2022-12-08T00:50:15.238Z,0.39
2022-12-08T00:52:42.099Z,0.44
2022-12-08T00:55:09.338Z,0.48
2022-12-08T00:57:35.961Z,0.53
2022-12-08T01:00:03.051Z,0.52
2022-12-08T01:02:29.940Z,0.56
2022-12-08T01:04:56.764Z,0.57
2022-12-08T01:07:23.537Z,0.57
2022-12-08T01:09:50.278Z,0.60
2022-12-08T01:12:16.984Z,0.59
2022-12-08T01:14:43.680Z,0.62
2022-12-08T01:17:10.642Z,0.60
2022-12-08T01:19:37.833Z,0.65
2022-12-08T01:22:04.520Z,0.60
2022-12-08T01:24:31.784Z,0.54
2022-12-08T01:26:58.454Z,0.63
2022-12-08T01:29:26.765Z,0.57
2022-12-08T01:31:53.520Z,0.60
2022-12-08T01:34:20.276Z,0.57
2022-12-08T01:36:48.023Z,0.62
2022-12-08T01:39:17.423Z,0.57
2022-12-08T01:41:45.151Z,0.64
2022-12-08T01:44:12.664Z,0.65
2022-12-08T01:46:44.775Z,0.69
2022-12-08T01:49:27.443Z,0.67
2022-12-08T01:52:09.585Z,0.64
2022-12-08T01:54:46.395Z,0.66
2022-12-08T01:57:20.960Z,0.64
2022-12-08T01:59:54.782Z,0.66
2022-12-08T02:02:21.732Z,0.65
2022-12-08T02:04:48.583Z,0.65
2022-12-08T02:07:16.564Z,0.78
2022-12-08T02:09:44.216Z,0.77
2022-12-08T02:12:11.723Z,0.72
2022-12-08T02:14:38.953Z,0.75
2022-12-08T02:17:43.668Z,0.77
2022-12-08T02:20:51.880Z,0.71
2022-12-08T02:23:27.717Z,0.71
2022-12-08T02:26:13.659Z,0.72
2022-12-08T02:28:59.098Z,0.72
2022-12-08T02:31:43.936Z,0.72
2022-12-08T02:34:15.975Z,0.68
2022-12-08T02:37:00.781Z,0.76
2022-12-08T02:39:42.535Z,0.79
2022-12-08T02:42:23.057Z,0.78
2022-12-08T02:45:00.275Z,0.88
2022-12-08T02:47:28.443Z,0.93
2022-12-08T02:49:56.431Z,0.95
2022-12-08T02:52:23.175Z,0.98
2022-12-08T02:55:02.084Z,0.93
2022-12-08T02:57:47.674Z,0.90
2022-12-08T03:00:17.873Z,0.98
2022-12-08T03:03:02.713Z,1.01
2022-12-08T03:05:48.068Z,0.98
2022-12-08T03:08:46.121Z,0.96
2022-12-08T03:11:26.365Z,0.90
2022-12-08T03:13:57.492Z,0.92
2022-12-08T03:16:27.002Z,0.90
2022-12-08T03:19:02.349Z,0.92
2022-12-08T03:21:31.562Z,0.92
2022-12-08T03:23:58.345Z,0.92
2022-12-08T03:26:38.902Z,0.98
2022-12-08T03:29:06.470Z,1.01
2022-12-08T03:31:39.111Z,0.96
2022-12-08T03:34:06.686Z,0.90
2022-12-08T03:36:33.578Z,0.88
2022-12-08T03:39:00.414Z,0.88
2022-12-08T03:41:27.159Z,0.95
2022-12-08T03:43:57.150Z,1.01
2022-12-08T03:48:52.349Z,1.01
2022-12-08T03:51:19.692Z,0.99
2022-12-08T03:53:46.875Z,1.00
2022-12-08T03:56:24.834Z,1.01
2022-12-08T03:58:52.658Z,0.96
2022-12-08T04:01:19.793Z,1.00
2022-12-08T04:03:46.837Z,1.02
2022-12-08T04:06:13.734Z,1.02
2022-12-08T04:08:40.887Z,1.04
2022-12-08T04:11:08.216Z,1.02
2022-12-08T04:13:36.955Z,1.08
2022-12-08T04:16:05.159Z,1.09
2022-12-08T04:18:33.444Z,1.06
2022-12-08T04:21:00.292Z,1.11
2022-12-08T04:23:27.372Z,1.17
2022-12-08T04:25:54.536Z,1.13
2022-12-08T04:28:21.898Z,1.15
2022-12-08T04:30:49.701Z,1.13
2022-12-08T04:33:16.948Z,1.14
2022-12-08T04:35:43.666Z,1.10
2022-12-08T04:38:10.368Z,1.11
2022-12-08T04:40:37.119Z,1.14
2022-12-08T04:43:03.965Z,1.12
2022-12-08T04:45:31.230Z,1.12
2022-12-08T04:48:01.455Z,1.11
2022-12-08T04:50:28.494Z,1.04
2022-12-08T04:52:55.293Z,1.08
2022-12-08T04:55:22.052Z,1.10
2022-12-08T04:57:48.769Z,1.08
2022-12-08T05:00:15.886Z,1.12
2022-12-08T05:02:42.827Z,1.12
2022-12-08T05:05:10.599Z,1.16
2022-12-08T05:07:37.575Z,1.14
2022-12-08T05:10:05.136Z,1.18
2022-12-08T05:12:32.013Z,1.15
2022-12-08T05:14:58.768Z,1.19
2022-12-08T05:17:25.640Z,1.15
2022-12-08T05:19:52.374Z,1.13
2022-12-08T05:22:19.276Z,1.11
2022-12-08T05:24:47.831Z,1.09
2022-12-08T05:27:15.151Z,1.12
2022-12-08T05:29:42.458Z,1.13
2022-12-08T05:32:09.336Z,1.13
2022-12-08T05:34:36.083Z,1.13
2022-12-08T05:37:02.788Z,1.14
2022-12-08T05:39:29.570Z,1.27
2022-12-08T05:41:56.312Z,1.22
2022-12-08T05:44:23.022Z,1.23
2022-12-08T05:46:49.787Z,1.23
2022-12-08T05:49:16.436Z,1.23
2022-12-08T05:51:43.355Z,1.24
2022-12-08T05:54:10.430Z,1.28
2022-12-08T05:56:37.137Z,1.25
2022-12-08T05:59:07.121Z,1.32
2022-12-08T06:01:34.169Z,1.32
2022-12-08T06:04:03.244Z,1.31
2022-12-08T06:06:31.082Z,1.33
2022-12-08T06:08:57.869Z,1.32
2022-12-08T06:11:28.383Z,1.30
2022-12-08T06:13:58.802Z,1.30
2022-12-08T06:16:27.305Z,1.31
2022-12-08T06:18:56.670Z,1.33
2022-12-08T06:21:23.531Z,1.38
2022-12-08T06:23:52.785Z,1.41
2022-12-08T06:26:20.269Z,1.41
2022-12-08T06:28:47.344Z,1.36
2022-12-08T06:31:16.991Z,1.40
2022-12-08T06:33:44.104Z,1.48
2022-12-08T06:36:12.917Z,1.43
2022-12-08T06:38:43.326Z,1.50
2022-12-08T06:41:12.004Z,1.51
2022-12-08T06:43:39.280Z,1.49
2022-12-08T06:46:08.465Z,1.52
2022-12-08T06:48:35.466Z,1.51
2022-12-08T06:51:10.243Z,1.49
2022-12-08T06:53:37.903Z,1.49
2022-12-08T06:56:05.849Z,1.48
2022-12-08T06:58:33.030Z,1.47
2022-12-08T07:01:11.607Z,1.46
2022-12-08T07:03:40.100Z,1.45
2022-12-08T07:06:07.752Z,1.54
2022-12-08T07:08:35.096Z,1.58
2022-12-08T07:11:10.567Z,1.48
2022-12-08T07:13:37.677Z,1.48
2022-12-08T07:16:09.135Z,1.50
2022-12-08T07:18:36.611Z,1.49
2022-12-08T07:21:12.115Z,1.52
2022-12-08T07:23:39.075Z,1.50
2022-12-08T07:26:11.229Z,1.46
2022-12-08T07:28:40.208Z,1.43
2022-12-08T07:31:08.715Z,1.45
2022-12-08T07:33:36.232Z,1.46
2022-12-08T07:36:06.450Z,1.48
2022-12-08T07:38:33.330Z,1.50
2022-12-08T07:41:01.492Z,1.55
2022-12-08T07:43:28.482Z,1.54
2022-12-08T07:45:55.233Z,1.54
2022-12-08T07:48:22.267Z,1.56
2022-12-08T07:50:49.246Z,1.58
2022-12-08T07:53:16.074Z,1.57
2022-12-08T07:55:43.947Z,1.58
2022-12-08T07:58:11.428Z,1.62
2022-12-08T08:00:38.202Z,1.62
2022-12-08T08:03:05.028Z,1.61
2022-12-08T08:05:31.865Z,1.63
2022-12-08T08:07:58.672Z,1.65
2022-12-08T08:10:25.626Z,1.67
2022-12-08T08:12:52.283Z,1.70
2022-12-08T08:15:21.193Z,1.73
2022-12-08T08:17:53.611Z,1.73
2022-12-08T08:20:20.953Z,1.73
2022-12-08T08:22:49.376Z,1.73
2022-12-08T08:25:17.134Z,1.72
2022-12-08T08:27:44.044Z,1.80
2022-12-08T08:30:18.147Z,1.83
2022-12-08T08:32:47.720Z,1.87
2022-12-08T08:35:14.384Z,1.86
2022-12-08T08:37:48.327Z,1.84
2022-12-08T08:40:15.721Z,1.82
2022-12-08T08:42:42.379Z,1.81
2022-12-08T08:45:09.534Z,1.81
2022-12-08T08:47:36.182Z,1.81
2022-12-08T08:50:04.699Z,1.80
2022-12-08T08:52:31.641Z,1.84
2022-12-08T08:54:58.388Z,1.84
2022-12-08T08:57:25.983Z,1.88
2022-12-08T08:59:54.066Z,1.89
2022-12-08T09:02:21.867Z,1.91
2022-12-08T09:04:48.687Z,1.89
2022-12-08T09:07:16.235Z,1.94
2022-12-08T09:09:42.955Z,1.97
2022-12-08T09:12:10.521Z,1.98
2022-12-08T09:14:37.413Z,1.97
2022-12-08T09:17:04.865Z,1.98
2022-12-08T09:19:31.555Z,2.00
2022-12-08T09:21:58.280Z,2.09
2022-12-08T09:24:25.034Z,2.03
2022-12-08T09:26:51.853Z,2.06
2022-12-08T09:29:18.688Z,2.13
2022-12-08T09:31:45.405Z,2.15
2022-12-08T09:34:12.950Z,2.15
2022-12-08T09:36:40.541Z,2.17
2022-12-08T09:39:08.003Z,2.19
2022-12-08T09:41:43.258Z,2.21
2022-12-08T09:44:16.350Z,2.25
2022-12-08T09:46:43.963Z,2.26
2022-12-08T09:49:16.444Z,2.33
2022-12-08T09:51:44.846Z,2.33
2022-12-08T09:54:24.064Z,2.40
2022-12-08T09:56:55.145Z,2.44
2022-12-08T09:59:31.956Z,2.49
2022-12-08T10:02:10.727Z,2.56
2022-12-08T10:04:38.830Z,2.62
2022-12-08T10:07:47.405Z,2.68
2022-12-08T10:10:35.767Z,2.73
2022-12-08T10:13:05.833Z,2.79
2022-12-08T10:15:44.643Z,2.79
2022-12-08T10:18:17.806Z,2.81
2022-12-08T10:20:47.681Z,2.81
2022-12-08T10:23:38.625Z,2.85
2022-12-08T10:26:11.601Z,2.85
2022-12-08T10:28:44.494Z,2.85
2022-12-08T10:31:24.296Z,2.85
2022-12-08T10:33:59.286Z,2.86
2022-12-08T10:36:46.126Z,2.85
2022-12-08T10:39:31.898Z,2.88
2022-12-08T10:42:06.362Z,2.87
2022-12-08T10:44:33.428Z,2.87
2022-12-08T10:47:00.190Z,2.85
2022-12-08T10:49:32.357Z,2.83
2022-12-08T10:51:59.095Z,2.87
2022-12-08T10:54:34.712Z,2.88
2022-12-08T10:57:01.658Z,2.89
2022-12-08T10:59:29.260Z,2.86
2022-12-08T11:01:57.574Z,2.89
2022-12-08T11:04:36.462Z,2.87
2022-12-08T11:07:06.320Z,2.91
2022-12-08T11:09:48.679Z,2.90
2022-12-08T11:12:15.663Z,2.92
2022-12-08T11:14:42.329Z,2.93
2022-12-08T11:17:15.857Z,2.92
2022-12-08T11:19:55.868Z,2.95
2022-12-08T11:22:24.732Z,2.94
2022-12-08T11:25:16.087Z,2.95
2022-12-08T11:27:45.218Z,2.96
2022-12-08T11:30:47.418Z,2.95
2022-12-08T11:33:19.598Z,2.94
2022-12-08T11:35:51.340Z,2.97
2022-12-08T11:38:22.836Z,2.97
2022-12-08T11:41:16.934Z,2.99
2022-12-08T11:43:56.572Z,3.01
2022-12-08T11:46:26.387Z,2.99
2022-12-08T11:49:13.747Z,3.03
2022-12-08T11:51:48.240Z,3.03
2022-12-08T11:54:29.946Z,3.07
2022-12-08T11:56:58.718Z,3.08
2022-12-08T11:59:31.730Z,3.11
2022-12-08T12:02:00.918Z,3.14
2022-12-08T12:04:42.316Z,3.16
2022-12-08T12:07:45.923Z,3.19
2022-12-08T12:10:28.130Z,3.21
2022-12-08T12:13:11.525Z,3.25
2022-12-08T12:16:03.398Z,3.28
2022-12-08T12:18:41.124Z,3.25
2022-12-08T12:21:16.953Z,3.29
2022-12-08T12:23:49.809Z,3.29
2022-12-08T12:26:29.577Z,3.34
2022-12-08T12:29:11.335Z,3.41
2022-12-08T12:31:43.264Z,3.41
2022-12-08T12:34:25.326Z,3.42
2022-12-08T12:37:07.081Z,3.38
2022-12-08T12:39:53.728Z,3.34
2022-12-08T12:42:55.809Z,3.34
2022-12-08T12:45:22.531Z,3.35
2022-12-08T12:48:14.554Z,3.30
2022-12-08T12:50:43.337Z,3.30
2022-12-08T12:53:16.415Z,3.24
2022-12-08T12:55:46.890Z,3.20
2022-12-08T12:58:36.032Z,3.19
2022-12-08T13:01:12.130Z,3.15
2022-12-08T13:03:45.873Z,3.13
2022-12-08T13:06:15.366Z,3.12
2022-12-08T13:08:55.248Z,3.08
2022-12-08T13:11:23.500Z,3.03
2022-12-08T13:13:58.810Z,3.04
2022-12-08T13:16:27.708Z,3.03
2022-12-08T13:18:59.645Z,3.02
2022-12-08T13:21:34.624Z,3.02
2022-12-08T13:24:10.356Z,3.03
2022-12-08T13:27:05.688Z,3.04
2022-12-08T13:29:33.969Z,3.03
2022-12-08T13:32:24.217Z,3.05
2022-12-08T13:34:59.167Z,2.99
2022-12-08T13:37:29.644Z,2.97
2022-12-08T13:40:05.695Z,2.96
2022-12-08T13:42:50.724Z,2.96
2022-12-08T13:46:12.259Z,2.92
2022-12-08T13:49:18.543Z,2.88
2022-12-08T13:57:32.871Z,2.93
2022-12-08T14:00:16.171Z,2.95
2022-12-08T14:02:48.040Z,2.95
2022-12-08T14:05:19.103Z,2.95
2022-12-08T14:07:48.205Z,2.93
2022-12-08T14:10:41.451Z,2.93
2022-12-08T14:13:12.498Z,2.94
2022-12-08T14:15:40.361Z,2.98
2022-12-08T14:18:23.926Z,2.97
2022-12-08T14:21:20.850Z,3.01
2022-12-08T14:23:48.907Z,2.98
2022-12-08T14:26:15.551Z,2.97
2022-12-08T14:28:45.179Z,3.00
2022-12-08T14:31:14.745Z,2.97
2022-12-08T14:33:41.827Z,2.99
2022-12-08T14:36:09.789Z,2.97
2022-12-08T14:38:36.582Z,2.97
2022-12-08T14:41:09.285Z,2.99
2022-12-08T14:43:36.292Z,2.98
2022-12-08T14:46:18.614Z,3.01
2022-12-08T14:48:45.830Z,3.01
2022-12-08T14:51:21.582Z,3.00
2022-12-08T14:54:01.032Z,3.05
2022-12-08T14:56:34.009Z,2.98
2022-12-08T14:59:21.000Z,3.07
2022-12-08T15:01:50.006Z,3.03
2022-12-08T15:04:25.762Z,3.02
2022-12-08T15:06:54.484Z,3.01
2022-12-08T15:09:36.450Z,3.02
2022-12-08T15:12:06.570Z,3.01
2022-12-08T15:14:34.540Z,3.00
2022-12-08T15:17:01.699Z,2.99
2022-12-08T15:19:31.592Z,2.98
2022-12-08T15:22:11.945Z,2.98
2022-12-08T15:24:38.768Z,2.98
2022-12-08T15:27:05.431Z,2.99
2022-12-08T15:29:32.255Z,3.01
2022-12-08T15:32:01.660Z,2.98
2022-12-08T15:34:28.338Z,2.99
2022-12-08T15:36:56.390Z,2.97
2022-12-08T15:39:38.392Z,2.95
2022-12-08T15:42:12.544Z,2.91
2022-12-08T15:44:39.873Z,2.96
2022-12-08T15:47:11.732Z,2.95
2022-12-08T15:49:39.050Z,2.96
2022-12-08T15:52:12.325Z,2.97
2022-12-08T15:54:39.150Z,2.98
2022-12-08T15:57:40.303Z,2.97
2022-12-08T15:59:53.234Z,2.96
2022-12-08T16:02:22.747Z,2.98
2022-12-08T16:07:38.395Z,2.99
2022-12-08T16:10:06.664Z,3.01
2022-12-08T16:15:58.504Z,2.96
2022-12-08T16:18:30.012Z,2.96
2022-12-08T16:23:45.170Z,2.96
2022-12-08T16:26:54.492Z,2.94
2022-12-08T16:29:00.498Z,2.97
2022-12-08T16:31:27.326Z,3.04
2022-12-08T16:33:54.167Z,3.04
2022-12-08T16:36:20.898Z,3.04
2022-12-08T16:38:47.622Z,3.02
2022-12-08T16:41:34.281Z,3.02
2022-12-08T16:44:05.735Z,3.03
2022-12-08T16:46:34.136Z,3.03
2022-12-08T16:49:01.003Z,3.04
2022-12-08T16:51:27.957Z,3.04
2022-12-08T16:53:55.650Z,3.13
2022-12-08T16:56:26.355Z,3.04
2022-12-08T16:58:57.433Z,3.03
2022-12-08T17:01:24.577Z,3.01
2022-12-08T17:04:14.441Z,3.07
2022-12-08T17:06:38.116Z,3.04
2022-12-08T17:09:04.992Z,3.03
2022-12-08T17:11:36.289Z,2.99
2022-12-08T17:14:05.968Z,2.95
2022-12-08T17:16:32.734Z,2.95
2022-12-08T17:18:59.594Z,2.94
2022-12-08T17:21:26.348Z,2.97
2022-12-08T17:23:53.097Z,2.99
2022-12-08T17:26:19.780Z,2.96
2022-12-08T17:29:01.905Z,3.00
2022-12-08T17:31:31.225Z,3.02
2022-12-08T17:34:03.246Z,3.02
2022-12-08T17:36:30.161Z,3.01
2022-12-08T17:38:59.731Z,3.01
2022-12-08T17:41:27.053Z,3.06
2022-12-08T17:43:53.771Z,3.16
2022-12-08T17:46:21.736Z,3.13
2022-12-08T17:48:49.293Z,3.12
2022-12-08T17:51:16.229Z,3.10
2022-12-08T17:53:43.089Z,3.08
2022-12-08T17:56:21.452Z,3.07
2022-12-08T17:58:54.397Z,3.08
2022-12-08T18:01:23.620Z,3.05
2022-12-08T18:03:50.923Z,3.04
2022-12-08T18:06:17.744Z,3.03
2022-12-08T18:08:45.044Z,3.03
2022-12-08T18:11:19.422Z,3.04
2022-12-08T18:13:48.627Z,3.05
2022-12-08T18:16:15.908Z,3.01
2022-12-08T18:18:42.967Z,3.06
2022-12-08T18:21:09.764Z,3.04
2022-12-08T18:23:41.488Z,3.03
2022-12-08T18:26:10.742Z,3.01
2022-12-08T18:28:38.275Z,3.01
2022-12-08T18:31:24.309Z,3.05
2022-12-08T18:33:52.236Z,3.05
2022-12-08T18:36:22.087Z,3.06
2022-12-08T18:38:49.577Z,3.06
2022-12-08T18:41:20.576Z,3.07
2022-12-08T18:43:47.372Z,3.08
2022-12-08T18:46:15.238Z,3.05
2022-12-08T18:48:44.541Z,3.07
2022-12-08T18:51:12.525Z,3.06
2022-12-08T18:53:39.974Z,3.06
2022-12-08T18:56:07.495Z,3.12
2022-12-08T18:58:34.981Z,3.20
2022-12-08T19:01:01.696Z,3.24
2022-12-08T19:03:28.459Z,3.29
2022-12-08T19:06:05.615Z,3.35
2022-12-08T19:08:32.572Z,3.49
2022-12-08T19:11:00.122Z,3.59
2022-12-08T19:13:27.442Z,3.58
2022-12-08T19:15:54.722Z,3.57
2022-12-08T19:18:21.569Z,3.58
2022-12-08T19:20:48.277Z,3.60
2022-12-08T19:23:15.751Z,3.63
2022-12-08T19:25:42.509Z,3.59
2022-12-08T19:28:09.346Z,3.50
2022-12-08T19:30:36.115Z,3.44
2022-12-08T19:33:02.852Z,3.49
2022-12-08T19:35:29.592Z,3.50
2022-12-08T19:37:56.245Z,3.52
2022-12-08T19:40:41.478Z,3.62
2022-12-08T19:43:36.718Z,3.62
2022-12-08T19:46:03.649Z,3.54
2022-12-08T19:48:30.643Z,3.53
2022-12-08T19:50:57.635Z,3.54
2022-12-08T19:53:24.637Z,3.49
2022-12-08T19:55:51.297Z,3.45
2022-12-08T19:58:19.483Z,3.51
2022-12-08T20:00:46.881Z,3.53
2022-12-08T20:03:18.996Z,3.52
2022-12-08T20:05:47.532Z,3.49
2022-12-08T20:08:14.511Z,3.44
2022-12-08T20:10:43.276Z,3.52
2022-12-08T20:13:30.541Z,3.52
2022-12-08T20:15:57.922Z,3.54
2022-12-08T20:18:25.468Z,3.54
2022-12-08T20:20:52.317Z,3.54
2022-12-08T20:23:19.219Z,3.50
2022-12-08T20:25:47.798Z,3.58
2022-12-08T20:28:14.803Z,3.56
2022-12-08T20:30:43.165Z,3.55
2022-12-08T20:33:13.501Z,3.60
2022-12-08T20:35:40.279Z,3.57
2022-12-08T20:38:07.215Z,3.63
2022-12-08T20:40:34.029Z,3.67
2022-12-08T20:43:00.794Z,3.61
2022-12-08T20:45:27.714Z,3.68
2022-12-08T20:47:54.446Z,3.64
2022-12-08T20:50:21.293Z,3.57
2022-12-08T20:52:48.189Z,3.60
2022-12-08T20:55:15.136Z,3.53
2022-12-08T20:57:42.079Z,3.61
2022-12-08T21:00:09.832Z,3.67
2022-12-08T21:02:41.709Z,3.52
2022-12-08T21:05:12.233Z,3.62
2022-12-08T21:07:39.171Z,3.65
2022-12-08T21:10:07.272Z,3.68
2022-12-08T21:12:34.354Z,3.71
2022-12-08T21:15:01.276Z,3.76
2022-12-08T21:17:28.193Z,3.80
2022-12-08T21:19:54.923Z,3.79
2022-12-08T21:22:21.724Z,3.76
2022-12-08T21:24:48.507Z,3.71
2022-12-08T21:27:15.270Z,3.77
2022-12-08T21:29:42.029Z,3.72
2022-12-08T21:32:08.939Z,3.77
2022-12-08T21:34:35.842Z,3.77
2022-12-08T21:37:02.794Z,3.79
2022-12-08T21:39:29.589Z,3.81
2022-12-08T21:42:14.963Z,3.85
2022-12-08T21:44:41.761Z,3.87
2022-12-08T21:47:08.542Z,3.78
2022-12-08T21:49:35.617Z,3.78
2022-12-08T21:52:02.367Z,3.76
2022-12-08T21:54:29.304Z,3.73
2022-12-08T21:56:56.181Z,3.65
2022-12-08T21:59:23.021Z,3.74
2022-12-08T22:01:49.991Z,3.82
2022-12-08T22:04:19.134Z,3.76
2022-12-08T22:06:46.338Z,3.78
2022-12-08T22:09:15.307Z,3.86
2022-12-08T22:11:43.127Z,3.94
2022-12-08T22:14:14.466Z,3.85
2022-12-08T22:16:42.245Z,3.87
2022-12-08T22:19:09.127Z,3.90
2022-12-08T22:21:35.987Z,3.95
2022-12-08T22:24:02.639Z,3.99
2022-12-08T22:26:29.417Z,3.95
2022-12-08T22:28:56.206Z,3.91
2022-12-08T22:31:23.052Z,3.87
2022-12-08T22:33:51.095Z,3.90
2022-12-08T22:36:21.424Z,3.93
2022-12-08T22:38:48.330Z,3.88
2022-12-08T22:41:15.090Z,3.90
2022-12-08T22:43:42.147Z,3.89
2022-12-08T22:46:22.749Z,3.98
2022-12-08T22:48:50.653Z,3.91
2022-12-08T22:51:18.206Z,3.82
2022-12-08T22:53:46.150Z,3.79
2022-12-08T22:56:15.346Z,3.91
2022-12-08T22:58:44.149Z,4.00
2022-12-08T23:01:25.484Z,3.98
2022-12-08T23:03:52.553Z,3.94
2022-12-08T23:06:19.761Z,3.93
2022-12-08T23:08:46.811Z,3.96
2022-12-08T23:11:13.713Z,4.04
2022-12-08T23:13:40.768Z,4.05
2022-12-08T23:16:09.714Z,4.01
2022-12-08T23:18:37.501Z,4.02
2022-12-08T23:21:09.567Z,3.93
2022-12-08T23:23:36.581Z,3.94
2022-12-08T23:26:04.479Z,3.99
2022-12-08T23:28:31.282Z,4.05
2022-12-08T23:30:58.149Z,4.00
2022-12-08T23:33:25.126Z,3.95
2022-12-08T23:35:58.605Z,4.00
2022-12-08T23:38:26.409Z,4.03
2022-12-08T23:40:53.224Z,4.01
2022-12-08T23:43:20.488Z,3.95
2022-12-08T23:45:48.526Z,3.96
2022-12-08T23:48:15.589Z,3.92
2022-12-08T23:50:42.473Z,4.00
2022-12-08T23:53:09.182Z,3.97
2022-12-08T23:55:36.062Z,3.96
2022-12-08T23:58:03.034Z,3.90
